Terminal Aerodrome Forecast
Issued by NWS

Home | Current Version | Previous Version | Graphics & Text | Print | Product List | Glossary On
Versions: 1 2 3 4 5 6 7 8 9 10 11 12 13 14 15
000
FTUS43 KICT 281730
TAFSLN
TAF
KSLN 281730Z 2818/2918 12011KT P6SM SKC
     FM290600 17015G23KT P6SM BKN250
     FM290900 20014G23KT P6SM SCT100 BKN200
     FM291500 34018G24KT P6SM SKC=

USA.gov is the U.S. government's official web portal to all federal, state and local government web resources and services.